sensor_id;sensor_type;location;lat;lon;timestamp;temperature;humidity
38325;DHT22;24126;52.672;13.622;2023-12-28T00:02:14;8.70;78.10
38325;DHT22;24126;52.672;13.622;2023-12-28T00:04:41;8.70;78.10
38325;DHT22;24126;52.672;13.622;2023-12-28T00:07:08;8.70;78.10
38325;DHT22;24126;52.672;13.622;2023-12-28T00:09:35;8.70;78.10
38325;DHT22;24126;52.672;13.622;2023-12-28T00:12:02;8.70;78.10
38325;DHT22;24126;52.672;13.622;2023-12-28T00:14:30;8.70;78.10
38325;DHT22;24126;52.672;13.622;2023-12-28T00:16:57;8.80;78.10
38325;DHT22;24126;52.672;13.622;2023-12-28T00:19:24;8.80;78.10
38325;DHT22;24126;52.672;13.622;2023-12-28T00:21:52;8.80;77.90
38325;DHT22;24126;52.672;13.622;2023-12-28T00:24:19;8.90;77.90
38325;DHT22;24126;52.672;13.622;2023-12-28T00:26:47;8.90;77.80
38325;DHT22;24126;52.672;13.622;2023-12-28T00:29:14;8.90;77.70
38325;DHT22;24126;52.672;13.622;2023-12-28T00:31:41;8.90;77.70
38325;DHT22;24126;52.672;13.622;2023-12-28T00:34:08;8.90;77.80
38325;DHT22;24126;52.672;13.622;2023-12-28T00:36:35;8.90;77.70
38325;DHT22;24126;52.672;13.622;2023-12-28T00:39:02;8.90;77.80
38325;DHT22;24126;52.672;13.622;2023-12-28T00:41:29;8.80;77.70
38325;DHT22;24126;52.672;13.622;2023-12-28T00:43:56;8.80;77.70
38325;DHT22;24126;52.672;13.622;2023-12-28T00:46:23;8.90;77.80
38325;DHT22;24126;52.672;13.622;2023-12-28T00:48:50;8.80;77.80
38325;DHT22;24126;52.672;13.622;2023-12-28T00:51:17;8.80;77.80
38325;DHT22;24126;52.672;13.622;2023-12-28T00:53:44;8.80;77.90
38325;DHT22;24126;52.672;13.622;2023-12-28T00:56:11;8.80;77.90
38325;DHT22;24126;52.672;13.622;2023-12-28T00:58:39;8.80;77.90
38325;DHT22;24126;52.672;13.622;2023-12-28T01:01:06;8.80;77.90
38325;DHT22;24126;52.672;13.622;2023-12-28T01:03:33;8.80;77.80
38325;DHT22;24126;52.672;13.622;2023-12-28T01:06:00;8.80;77.80
38325;DHT22;24126;52.672;13.622;2023-12-28T01:08:27;8.80;77.80
38325;DHT22;24126;52.672;13.622;2023-12-28T01:10:55;8.90;77.70
38325;DHT22;24126;52.672;13.622;2023-12-28T01:13:22;8.90;77.60
38325;DHT22;24126;52.672;13.622;2023-12-28T01:15:49;8.90;77.60
38325;DHT22;24126;52.672;13.622;2023-12-28T01:18:16;8.90;77.50
38325;DHT22;24126;52.672;13.622;2023-12-28T01:20:44;9.00;77.60
38325;DHT22;24126;52.672;13.622;2023-12-28T01:23:11;9.00;77.50
38325;DHT22;24126;52.672;13.622;2023-12-28T01:25:38;9.00;77.30
38325;DHT22;24126;52.672;13.622;2023-12-28T01:28:05;9.00;77.20
38325;DHT22;24126;52.672;13.622;2023-12-28T01:30:32;9.10;77.10
38325;DHT22;24126;52.672;13.622;2023-12-28T01:33:00;9.10;77.00
38325;DHT22;24126;52.672;13.622;2023-12-28T01:35:27;9.10;76.80
38325;DHT22;24126;52.672;13.622;2023-12-28T01:37:54;9.10;76.70
38325;DHT22;24126;52.672;13.622;2023-12-28T01:40:21;9.20;76.70
38325;DHT22;24126;52.672;13.622;2023-12-28T01:42:48;9.10;76.60
38325;DHT22;24126;52.672;13.622;2023-12-28T01:45:15;9.10;76.60
38325;DHT22;24126;52.672;13.622;2023-12-28T01:47:42;9.10;76.60
38325;DHT22;24126;52.672;13.622;2023-12-28T01:50:09;9.10;76.50
38325;DHT22;24126;52.672;13.622;2023-12-28T01:52:36;9.10;76.50
38325;DHT22;24126;52.672;13.622;2023-12-28T01:55:05;9.10;76.40
38325;DHT22;24126;52.672;13.622;2023-12-28T01:57:34;9.10;76.50
38325;DHT22;24126;52.672;13.622;2023-12-28T02:00:02;9.10;76.50
38325;DHT22;24126;52.672;13.622;2023-12-28T02:02:38;9.10;76.50
38325;DHT22;24126;52.672;13.622;2023-12-28T02:05:08;9.10;76.60
38325;DHT22;24126;52.672;13.622;2023-12-28T02:07:35;9.10;76.70
38325;DHT22;24126;52.672;13.622;2023-12-28T02:10:03;9.10;76.70
38325;DHT22;24126;52.672;13.622;2023-12-28T02:12:31;9.10;76.70
38325;DHT22;24126;52.672;13.622;2023-12-28T02:14:58;9.10;76.60
38325;DHT22;24126;52.672;13.622;2023-12-28T02:17:28;9.10;76.70
38325;DHT22;24126;52.672;13.622;2023-12-28T02:19:57;9.10;76.70
38325;DHT22;24126;52.672;13.622;2023-12-28T02:22:25;9.10;76.50
38325;DHT22;24126;52.672;13.622;2023-12-28T02:25:05;9.10;76.40
38325;DHT22;24126;52.672;13.622;2023-12-28T02:27:40;9.20;76.40
38325;DHT22;24126;52.672;13.622;2023-12-28T02:30:08;9.20;76.20
38325;DHT22;24126;52.672;13.622;2023-12-28T02:32:37;9.30;76.10
38325;DHT22;24126;52.672;13.622;2023-12-28T02:35:08;9.30;75.90
38325;DHT22;24126;52.672;13.622;2023-12-28T02:37:36;9.40;75.90
38325;DHT22;24126;52.672;13.622;2023-12-28T02:40:04;9.40;75.70
38325;DHT22;24126;52.672;13.622;2023-12-28T02:42:31;9.40;75.70
38325;DHT22;24126;52.672;13.622;2023-12-28T02:44:58;9.50;75.70
38325;DHT22;24126;52.672;13.622;2023-12-28T02:47:26;9.40;75.70
38325;DHT22;24126;52.672;13.622;2023-12-28T02:49:53;9.50;75.80
38325;DHT22;24126;52.672;13.622;2023-12-28T02:52:22;9.50;75.80
38325;DHT22;24126;52.672;13.622;2023-12-28T02:54:49;9.50;75.80
38325;DHT22;24126;52.672;13.622;2023-12-28T02:57:16;9.50;75.80
38325;DHT22;24126;52.672;13.622;2023-12-28T02:59:44;9.60;75.80
38325;DHT22;24126;52.672;13.622;2023-12-28T03:02:11;9.60;75.70
38325;DHT22;24126;52.672;13.622;2023-12-28T03:04:39;9.60;75.70
38325;DHT22;24126;52.672;13.622;2023-12-28T03:07:07;9.70;75.80
38325;DHT22;24126;52.672;13.622;2023-12-28T03:09:34;9.80;75.80
38325;DHT22;24126;52.672;13.622;2023-12-28T03:12:04;9.80;75.60
38325;DHT22;24126;52.672;13.622;2023-12-28T03:14:31;9.80;75.50
38325;DHT22;24126;52.672;13.622;2023-12-28T03:16:58;9.90;75.50
38325;DHT22;24126;52.672;13.622;2023-12-28T03:19:25;9.90;75.60
38325;DHT22;24126;52.672;13.622;2023-12-28T03:21:52;9.90;75.40
38325;DHT22;24126;52.672;13.622;2023-12-28T03:24:19;9.90;75.30
38325;DHT22;24126;52.672;13.622;2023-12-28T03:26:46;10.00;75.30
38325;DHT22;24126;52.672;13.622;2023-12-28T03:29:13;10.00;75.30
38325;DHT22;24126;52.672;13.622;2023-12-28T03:31:40;10.10;75.30
38325;DHT22;24126;52.672;13.622;2023-12-28T03:34:07;10.10;75.20
38325;DHT22;24126;52.672;13.622;2023-12-28T03:36:35;10.20;75.10
38325;DHT22;24126;52.672;13.622;2023-12-28T03:39:02;10.20;75.00
38325;DHT22;24126;52.672;13.622;2023-12-28T03:41:31;10.20;74.90
38325;DHT22;24126;52.672;13.622;2023-12-28T03:43:58;10.30;74.90
38325;DHT22;24126;52.672;13.622;2023-12-28T03:46:25;10.30;74.80
38325;DHT22;24126;52.672;13.622;2023-12-28T03:48:52;10.40;74.80
38325;DHT22;24126;52.672;13.622;2023-12-28T03:51:20;10.40;74.70
38325;DHT22;24126;52.672;13.622;2023-12-28T03:53:47;10.40;74.70
38325;DHT22;24126;52.672;13.622;2023-12-28T03:56:21;10.50;74.60
38325;DHT22;24126;52.672;13.622;2023-12-28T03:58:48;10.50;74.60
38325;DHT22;24126;52.672;13.622;2023-12-28T04:01:16;10.50;74.60
38325;DHT22;24126;52.672;13.622;2023-12-28T04:03:43;10.50;74.60
38325;DHT22;24126;52.672;13.622;2023-12-28T04:06:10;10.60;74.70
38325;DHT22;24126;52.672;13.622;2023-12-28T04:08:41;10.60;74.70
38325;DHT22;24126;52.672;13.622;2023-12-28T04:11:09;10.60;74.80
38325;DHT22;24126;52.672;13.622;2023-12-28T04:13:36;10.60;74.80
38325;DHT22;24126;52.672;13.622;2023-12-28T04:16:05;10.60;74.80
38325;DHT22;24126;52.672;13.622;2023-12-28T04:18:32;10.60;74.80
38325;DHT22;24126;52.672;13.622;2023-12-28T04:20:59;10.70;74.90
38325;DHT22;24126;52.672;13.622;2023-12-28T04:23:26;10.70;74.90
38325;DHT22;24126;52.672;13.622;2023-12-28T04:25:53;10.70;74.90
38325;DHT22;24126;52.672;13.622;2023-12-28T04:28:20;10.70;74.90
38325;DHT22;24126;52.672;13.622;2023-12-28T04:30:47;10.70;74.90
38325;DHT22;24126;52.672;13.622;2023-12-28T04:33:16;10.70;74.90
38325;DHT22;24126;52.672;13.622;2023-12-28T04:35:44;10.80;74.90
38325;DHT22;24126;52.672;13.622;2023-12-28T04:38:12;10.80;74.80
38325;DHT22;24126;52.672;13.622;2023-12-28T04:40:39;10.80;74.80
38325;DHT22;24126;52.672;13.622;2023-12-28T04:43:11;10.80;74.80
38325;DHT22;24126;52.672;13.622;2023-12-28T04:45:38;10.80;74.70
38325;DHT22;24126;52.672;13.622;2023-12-28T04:48:05;10.90;74.70
38325;DHT22;24126;52.672;13.622;2023-12-28T04:50:32;10.90;74.70
38325;DHT22;24126;52.672;13.622;2023-12-28T04:52:59;10.90;74.60
38325;DHT22;24126;52.672;13.622;2023-12-28T04:55:26;10.90;74.60
38325;DHT22;24126;52.672;13.622;2023-12-28T04:57:54;11.00;74.60
38325;DHT22;24126;52.672;13.622;2023-12-28T05:00:22;11.00;74.60
38325;DHT22;24126;52.672;13.622;2023-12-28T05:02:49;11.00;74.60
38325;DHT22;24126;52.672;13.622;2023-12-28T05:05:16;11.00;74.50
38325;DHT22;24126;52.672;13.622;2023-12-28T05:07:43;11.10;74.50
38325;DHT22;24126;52.672;13.622;2023-12-28T05:10:10;11.10;74.40
38325;DHT22;24126;52.672;13.622;2023-12-28T05:12:39;11.10;74.30
38325;DHT22;24126;52.672;13.622;2023-12-28T05:15:06;11.10;74.30
38325;DHT22;24126;52.672;13.622;2023-12-28T05:17:33;11.10;74.20
38325;DHT22;24126;52.672;13.622;2023-12-28T05:20:00;11.10;74.10
38325;DHT22;24126;52.672;13.622;2023-12-28T05:22:27;11.20;74.20
38325;DHT22;24126;52.672;13.622;2023-12-28T05:24:54;11.20;74.10
38325;DHT22;24126;52.672;13.622;2023-12-28T05:27:21;11.20;74.00
38325;DHT22;24126;52.672;13.622;2023-12-28T05:29:48;11.20;73.90
38325;DHT22;24126;52.672;13.622;2023-12-28T05:32:15;11.20;73.90
38325;DHT22;24126;52.672;13.622;2023-12-28T05:34:43;11.20;73.90
38325;DHT22;24126;52.672;13.622;2023-12-28T05:37:10;11.30;73.80
38325;DHT22;24126;52.672;13.622;2023-12-28T05:39:37;11.30;73.70
38325;DHT22;24126;52.672;13.622;2023-12-28T05:42:04;11.30;73.70
38325;DHT22;24126;52.672;13.622;2023-12-28T05:44:31;11.30;73.50
38325;DHT22;24126;52.672;13.622;2023-12-28T05:46:58;11.30;73.50
38325;DHT22;24126;52.672;13.622;2023-12-28T05:49:25;11.30;73.40
38325;DHT22;24126;52.672;13.622;2023-12-28T05:51:54;11.30;73.30
38325;DHT22;24126;52.672;13.622;2023-12-28T05:54:21;11.30;73.30
38325;DHT22;24126;52.672;13.622;2023-12-28T05:56:48;11.30;73.30
38325;DHT22;24126;52.672;13.622;2023-12-28T05:59:15;11.30;73.20
38325;DHT22;24126;52.672;13.622;2023-12-28T06:01:42;11.30;73.20
38325;DHT22;24126;52.672;13.622;2023-12-28T06:04:10;11.30;73.20
38325;DHT22;24126;52.672;13.622;2023-12-28T06:06:37;11.30;73.10
38325;DHT22;24126;52.672;13.622;2023-12-28T06:09:04;11.30;73.20
38325;DHT22;24126;52.672;13.622;2023-12-28T06:11:31;11.30;73.10
38325;DHT22;24126;52.672;13.622;2023-12-28T06:13:58;11.30;73.10
38325;DHT22;24126;52.672;13.622;2023-12-28T06:16:25;11.30;73.10
38325;DHT22;24126;52.672;13.622;2023-12-28T06:18:53;11.30;73.20
38325;DHT22;24126;52.672;13.622;2023-12-28T06:21:20;11.30;73.20
38325;DHT22;24126;52.672;13.622;2023-12-28T06:23:47;11.30;73.20
38325;DHT22;24126;52.672;13.622;2023-12-28T06:26:14;11.30;73.20
38325;DHT22;24126;52.672;13.622;2023-12-28T06:28:41;11.30;73.30
38325;DHT22;24126;52.672;13.622;2023-12-28T06:31:08;11.30;73.20
38325;DHT22;24126;52.672;13.622;2023-12-28T06:33:35;11.30;73.20
38325;DHT22;24126;52.672;13.622;2023-12-28T06:36:06;11.30;73.20
38325;DHT22;24126;52.672;13.622;2023-12-28T06:38:33;11.30;73.30
38325;DHT22;24126;52.672;13.622;2023-12-28T06:41:00;11.40;73.40
38325;DHT22;24126;52.672;13.622;2023-12-28T06:43:27;11.30;73.40
38325;DHT22;24126;52.672;13.622;2023-12-28T06:45:54;11.30;73.60
38325;DHT22;24126;52.672;13.622;2023-12-28T06:48:21;11.30;73.70
38325;DHT22;24126;52.672;13.622;2023-12-28T06:50:50;11.40;73.80
38325;DHT22;24126;52.672;13.622;2023-12-28T06:53:17;11.40;73.90
38325;DHT22;24126;52.672;13.622;2023-12-28T06:55:44;11.40;73.90
38325;DHT22;24126;52.672;13.622;2023-12-28T06:58:11;11.40;73.90
38325;DHT22;24126;52.672;13.622;2023-12-28T07:00:39;11.40;74.20
38325;DHT22;24126;52.672;13.622;2023-12-28T07:03:07;11.50;74.30
38325;DHT22;24126;52.672;13.622;2023-12-28T07:05:34;11.40;74.20
38325;DHT22;24126;52.672;13.622;2023-12-28T07:08:01;11.50;74.30
38325;DHT22;24126;52.672;13.622;2023-12-28T07:10:28;11.50;74.40
38325;DHT22;24126;52.672;13.622;2023-12-28T07:12:55;11.50;74.40
38325;DHT22;24126;52.672;13.622;2023-12-28T07:15:22;11.50;74.50
38325;DHT22;24126;52.672;13.622;2023-12-28T07:17:50;11.50;74.50
38325;DHT22;24126;52.672;13.622;2023-12-28T07:20:17;11.50;74.60
38325;DHT22;24126;52.672;13.622;2023-12-28T07:22:45;11.50;74.60
38325;DHT22;24126;52.672;13.622;2023-12-28T07:25:12;11.50;74.60
38325;DHT22;24126;52.672;13.622;2023-12-28T07:27:39;11.50;74.60
38325;DHT22;24126;52.672;13.622;2023-12-28T07:30:07;11.50;74.60
38325;DHT22;24126;52.672;13.622;2023-12-28T07:32:34;11.60;74.70
38325;DHT22;24126;52.672;13.622;2023-12-28T07:35:01;11.50;74.70
38325;DHT22;24126;52.672;13.622;2023-12-28T07:37:28;11.50;74.70
38325;DHT22;24126;52.672;13.622;2023-12-28T07:39:55;11.50;74.80
38325;DHT22;24126;52.672;13.622;2023-12-28T07:42:23;11.60;75.60
38325;DHT22;24126;52.672;13.622;2023-12-28T07:44:50;11.50;74.90
38325;DHT22;24126;52.672;13.622;2023-12-28T07:47:17;11.50;74.90
38325;DHT22;24126;52.672;13.622;2023-12-28T07:49:45;11.50;75.00
38325;DHT22;24126;52.672;13.622;2023-12-28T07:52:12;11.50;75.10
38325;DHT22;24126;52.672;13.622;2023-12-28T07:54:39;11.50;75.10
38325;DHT22;24126;52.672;13.622;2023-12-28T07:57:06;11.60;75.10
38325;DHT22;24126;52.672;13.622;2023-12-28T07:59:33;11.60;75.10
38325;DHT22;24126;52.672;13.622;2023-12-28T08:02:00;11.60;75.10
38325;DHT22;24126;52.672;13.622;2023-12-28T08:04:27;11.60;75.10
38325;DHT22;24126;52.672;13.622;2023-12-28T08:06:54;11.60;75.20
38325;DHT22;24126;52.672;13.622;2023-12-28T08:09:21;11.60;75.20
38325;DHT22;24126;52.672;13.622;2023-12-28T08:11:48;11.60;75.20
38325;DHT22;24126;52.672;13.622;2023-12-28T08:14:16;11.70;75.30
38325;DHT22;24126;52.672;13.622;2023-12-28T08:16:43;11.70;75.30
38325;DHT22;24126;52.672;13.622;2023-12-28T08:19:10;11.70;75.40
38325;DHT22;24126;52.672;13.622;2023-12-28T08:21:37;11.70;75.40
38325;DHT22;24126;52.672;13.622;2023-12-28T08:24:04;11.70;75.40
38325;DHT22;24126;52.672;13.622;2023-12-28T08:26:31;11.80;75.50
38325;DHT22;24126;52.672;13.622;2023-12-28T08:28:59;11.80;75.40
38325;DHT22;24126;52.672;13.622;2023-12-28T08:31:26;11.80;75.50
38325;DHT22;24126;52.672;13.622;2023-12-28T08:33:55;11.90;75.50
38325;DHT22;24126;52.672;13.622;2023-12-28T08:36:22;11.90;75.40
38325;DHT22;24126;52.672;13.622;2023-12-28T08:38:49;11.90;75.40
38325;DHT22;24126;52.672;13.622;2023-12-28T08:41:20;11.90;75.40
38325;DHT22;24126;52.672;13.622;2023-12-28T08:43:47;12.00;75.50
38325;DHT22;24126;52.672;13.622;2023-12-28T08:46:14;12.00;75.50
38325;DHT22;24126;52.672;13.622;2023-12-28T08:48:42;12.00;75.40
38325;DHT22;24126;52.672;13.622;2023-12-28T08:51:09;12.10;75.40
38325;DHT22;24126;52.672;13.622;2023-12-28T08:53:36;12.10;75.40
38325;DHT22;24126;52.672;13.622;2023-12-28T08:56:17;12.10;75.40
38325;DHT22;24126;52.672;13.622;2023-12-28T08:58:45;12.10;75.40
38325;DHT22;24126;52.672;13.622;2023-12-28T09:01:20;12.10;75.30
38325;DHT22;24126;52.672;13.622;2023-12-28T09:03:50;12.20;75.30
38325;DHT22;24126;52.672;13.622;2023-12-28T09:06:18;12.20;75.20
38325;DHT22;24126;52.672;13.622;2023-12-28T09:08:47;12.20;75.20
38325;DHT22;24126;52.672;13.622;2023-12-28T09:11:14;12.30;75.10
38325;DHT22;24126;52.672;13.622;2023-12-28T09:13:41;12.30;75.00
38325;DHT22;24126;52.672;13.622;2023-12-28T09:16:10;12.40;74.90
38325;DHT22;24126;52.672;13.622;2023-12-28T09:18:37;12.40;74.90
38325;DHT22;24126;52.672;13.622;2023-12-28T09:21:05;12.40;74.80
38325;DHT22;24126;52.672;13.622;2023-12-28T09:23:32;12.40;74.70
38325;DHT22;24126;52.672;13.622;2023-12-28T09:26:00;12.40;74.70
38325;DHT22;24126;52.672;13.622;2023-12-28T09:28:29;12.40;74.60
38325;DHT22;24126;52.672;13.622;2023-12-28T09:30:56;12.40;74.60
38325;DHT22;24126;52.672;13.622;2023-12-28T09:33:23;12.40;74.60
38325;DHT22;24126;52.672;13.622;2023-12-28T09:35:50;12.50;74.60
38325;DHT22;24126;52.672;13.622;2023-12-28T09:38:19;12.50;74.50
38325;DHT22;24126;52.672;13.622;2023-12-28T09:40:47;12.50;74.50
38325;DHT22;24126;52.672;13.622;2023-12-28T09:43:30;12.50;74.60
38325;DHT22;24126;52.672;13.622;2023-12-28T09:46:09;12.60;74.40
38325;DHT22;24126;52.672;13.622;2023-12-28T09:48:37;12.60;74.20
38325;DHT22;24126;52.672;13.622;2023-12-28T09:51:04;12.60;74.20
38325;DHT22;24126;52.672;13.622;2023-12-28T09:53:32;12.60;74.20
38325;DHT22;24126;52.672;13.622;2023-12-28T09:55:59;12.60;74.00
38325;DHT22;24126;52.672;13.622;2023-12-28T09:58:29;12.60;74.10
38325;DHT22;24126;52.672;13.622;2023-12-28T10:00:58;12.60;74.20
38325;DHT22;24126;52.672;13.622;2023-12-28T10:03:26;12.60;74.00
38325;DHT22;24126;52.672;13.622;2023-12-28T10:05:53;12.60;74.00
38325;DHT22;24126;52.672;13.622;2023-12-28T10:08:20;12.60;74.00
38325;DHT22;24126;52.672;13.622;2023-12-28T10:10:47;12.60;74.60
38325;DHT22;24126;52.672;13.622;2023-12-28T10:13:17;12.70;73.90
38325;DHT22;24126;52.672;13.622;2023-12-28T10:15:44;12.70;74.00
38325;DHT22;24126;52.672;13.622;2023-12-28T10:18:11;12.70;73.90
38325;DHT22;24126;52.672;13.622;2023-12-28T10:20:38;12.70;73.80
38325;DHT22;24126;52.672;13.622;2023-12-28T10:23:05;12.80;73.80
38325;DHT22;24126;52.672;13.622;2023-12-28T10:25:33;12.80;73.70
38325;DHT22;24126;52.672;13.622;2023-12-28T10:28:03;12.90;73.70
38325;DHT22;24126;52.672;13.622;2023-12-28T10:30:31;13.00;73.70
38325;DHT22;24126;52.672;13.622;2023-12-28T10:32:59;13.00;73.60
38325;DHT22;24126;52.672;13.622;2023-12-28T10:35:26;13.00;73.40
38325;DHT22;24126;52.672;13.622;2023-12-28T10:37:53;13.00;73.30
38325;DHT22;24126;52.672;13.622;2023-12-28T10:40:26;13.10;73.40
38325;DHT22;24126;52.672;13.622;2023-12-28T10:42:55;13.10;73.20
38325;DHT22;24126;52.672;13.622;2023-12-28T10:45:25;13.20;73.30
38325;DHT22;24126;52.672;13.622;2023-12-28T10:48:04;13.20;73.10
38325;DHT22;24126;52.672;13.622;2023-12-28T10:50:34;13.20;73.00
38325;DHT22;24126;52.672;13.622;2023-12-28T10:53:08;13.30;72.90
38325;DHT22;24126;52.672;13.622;2023-12-28T10:55:46;13.40;72.80
38325;DHT22;24126;52.672;13.622;2023-12-28T10:58:24;13.50;72.70
38325;DHT22;24126;52.672;13.622;2023-12-28T11:00:54;13.40;72.50
38325;DHT22;24126;52.672;13.622;2023-12-28T11:03:24;13.40;72.50
38325;DHT22;24126;52.672;13.622;2023-12-28T11:05:54;13.50;72.70
38325;DHT22;24126;52.672;13.622;2023-12-28T11:08:25;13.40;72.70
38325;DHT22;24126;52.672;13.622;2023-12-28T11:10:52;13.40;72.70
38325;DHT22;24126;52.672;13.622;2023-12-28T11:13:20;13.50;72.80
38325;DHT22;24126;52.672;13.622;2023-12-28T11:15:48;13.50;72.90
38325;DHT22;24126;52.672;13.622;2023-12-28T11:18:16;13.60;72.80
38325;DHT22;24126;52.672;13.622;2023-12-28T11:20:44;13.70;72.60
38325;DHT22;24126;52.672;13.622;2023-12-28T11:23:12;13.80;72.60
38325;DHT22;24126;52.672;13.622;2023-12-28T11:25:39;13.90;72.10
38325;DHT22;24126;52.672;13.622;2023-12-28T11:28:10;13.90;72.00
38325;DHT22;24126;52.672;13.622;2023-12-28T11:30:38;13.90;71.90
38325;DHT22;24126;52.672;13.622;2023-12-28T11:33:11;14.00;71.90
38325;DHT22;24126;52.672;13.622;2023-12-28T11:35:38;14.00;71.80
38325;DHT22;24126;52.672;13.622;2023-12-28T11:38:08;14.00;71.70
38325;DHT22;24126;52.672;13.622;2023-12-28T11:40:45;14.00;71.50
38325;DHT22;24126;52.672;13.622;2023-12-28T11:43:20;14.00;71.50
38325;DHT22;24126;52.672;13.622;2023-12-28T11:45:47;14.00;72.10
38325;DHT22;24126;52.672;13.622;2023-12-28T11:48:22;14.00;71.60
38325;DHT22;24126;52.672;13.622;2023-12-28T11:50:50;14.00;71.50
38325;DHT22;24126;52.672;13.622;2023-12-28T11:53:17;14.00;71.50
38325;DHT22;24126;52.672;13.622;2023-12-28T11:55:45;14.10;71.40
38325;DHT22;24126;52.672;13.622;2023-12-28T11:58:12;14.10;71.50
38325;DHT22;24126;52.672;13.622;2023-12-28T12:00:39;14.10;71.20
38325;DHT22;24126;52.672;13.622;2023-12-28T12:03:09;14.20;71.10
38325;DHT22;24126;52.672;13.622;2023-12-28T12:05:36;14.20;70.80
38325;DHT22;24126;52.672;13.622;2023-12-28T12:08:04;14.30;70.90
38325;DHT22;24126;52.672;13.622;2023-12-28T12:10:31;14.30;70.60
38325;DHT22;24126;52.672;13.622;2023-12-28T12:13:00;14.30;70.70
38325;DHT22;24126;52.672;13.622;2023-12-28T12:15:29;14.30;70.40
38325;DHT22;24126;52.672;13.622;2023-12-28T12:17:56;14.40;70.50
38325;DHT22;24126;52.672;13.622;2023-12-28T12:20:23;14.40;70.30
38325;DHT22;24126;52.672;13.622;2023-12-28T12:22:52;14.40;70.10
38325;DHT22;24126;52.672;13.622;2023-12-28T12:25:19;14.40;70.10
38325;DHT22;24126;52.672;13.622;2023-12-28T12:27:46;14.40;70.00
38325;DHT22;24126;52.672;13.622;2023-12-28T12:30:13;14.40;70.00
38325;DHT22;24126;52.672;13.622;2023-12-28T12:32:41;14.40;69.80
38325;DHT22;24126;52.672;13.622;2023-12-28T12:35:09;14.40;69.90
38325;DHT22;24126;52.672;13.622;2023-12-28T12:37:37;14.40;69.90
38325;DHT22;24126;52.672;13.622;2023-12-28T12:40:04;14.40;69.70
38325;DHT22;24126;52.672;13.622;2023-12-28T12:42:32;14.40;69.30
38325;DHT22;24126;52.672;13.622;2023-12-28T12:44:59;14.40;69.40
38325;DHT22;24126;52.672;13.622;2023-12-28T12:47:31;14.30;69.10
38325;DHT22;24126;52.672;13.622;2023-12-28T12:49:58;14.20;69.10
38325;DHT22;24126;52.672;13.622;2023-12-28T12:52:25;14.20;69.40
38325;DHT22;24126;52.672;13.622;2023-12-28T12:54:54;14.20;69.50
38325;DHT22;24126;52.672;13.622;2023-12-28T12:57:21;14.10;69.50
38325;DHT22;24126;52.672;13.622;2023-12-28T12:59:48;14.20;69.50
38325;DHT22;24126;52.672;13.622;2023-12-28T13:02:17;14.20;69.60
38325;DHT22;24126;52.672;13.622;2023-12-28T13:04:48;14.20;69.40
38325;DHT22;24126;52.672;13.622;2023-12-28T13:07:19;14.30;69.50
38325;DHT22;24126;52.672;13.622;2023-12-28T13:09:46;14.30;69.50
38325;DHT22;24126;52.672;13.622;2023-12-28T13:12:13;14.30;69.30
38325;DHT22;24126;52.672;13.622;2023-12-28T13:14:40;14.30;69.40
38325;DHT22;24126;52.672;13.622;2023-12-28T13:17:10;14.30;69.50
38325;DHT22;24126;52.672;13.622;2023-12-28T13:19:37;14.30;69.40
38325;DHT22;24126;52.672;13.622;2023-12-28T13:22:04;14.30;69.30
38325;DHT22;24126;52.672;13.622;2023-12-28T13:24:32;14.30;69.20
38325;DHT22;24126;52.672;13.622;2023-12-28T13:26:59;14.30;69.30
38325;DHT22;24126;52.672;13.622;2023-12-28T13:29:26;14.30;69.30
38325;DHT22;24126;52.672;13.622;2023-12-28T13:31:53;14.30;69.20
38325;DHT22;24126;52.672;13.622;2023-12-28T13:34:20;14.30;69.20
38325;DHT22;24126;52.672;13.622;2023-12-28T13:36:48;14.20;69.10
38325;DHT22;24126;52.672;13.622;2023-12-28T13:39:28;14.20;69.20
38325;DHT22;24126;52.672;13.622;2023-12-28T13:41:56;14.20;69.30
38325;DHT22;24126;52.672;13.622;2023-12-28T13:44:23;14.20;69.50
38325;DHT22;24126;52.672;13.622;2023-12-28T13:46:50;14.20;69.30
38325;DHT22;24126;52.672;13.622;2023-12-28T13:49:19;14.20;69.40
38325;DHT22;24126;52.672;13.622;2023-12-28T13:51:47;14.20;69.50
38325;DHT22;24126;52.672;13.622;2023-12-28T13:54:15;14.20;69.60
38325;DHT22;24126;52.672;13.622;2023-12-28T13:56:42;14.20;69.60
38325;DHT22;24126;52.672;13.622;2023-12-28T13:59:11;14.20;69.60
38325;DHT22;24126;52.672;13.622;2023-12-28T14:01:38;14.20;69.60
38325;DHT22;24126;52.672;13.622;2023-12-28T14:04:05;14.20;69.70
38325;DHT22;24126;52.672;13.622;2023-12-28T14:06:32;14.20;69.70
38325;DHT22;24126;52.672;13.622;2023-12-28T14:09:00;14.20;69.50
38325;DHT22;24126;52.672;13.622;2023-12-28T14:11:27;14.10;69.80
38325;DHT22;24126;52.672;13.622;2023-12-28T14:13:54;14.10;69.70
38325;DHT22;24126;52.672;13.622;2023-12-28T14:16:21;14.10;69.80
38325;DHT22;24126;52.672;13.622;2023-12-28T14:18:48;14.10;69.80
38325;DHT22;24126;52.672;13.622;2023-12-28T14:21:15;14.10;69.90
38325;DHT22;24126;52.672;13.622;2023-12-28T14:23:43;14.00;69.80
38325;DHT22;24126;52.672;13.622;2023-12-28T14:26:13;14.00;69.90
38325;DHT22;24126;52.672;13.622;2023-12-28T14:28:44;14.00;70.00
38325;DHT22;24126;52.672;13.622;2023-12-28T14:31:11;14.00;70.00
38325;DHT22;24126;52.672;13.622;2023-12-28T14:33:39;14.00;69.90
38325;DHT22;24126;52.672;13.622;2023-12-28T14:36:29;14.00;69.90
38325;DHT22;24126;52.672;13.622;2023-12-28T14:38:54;14.00;69.80
38325;DHT22;24126;52.672;13.622;2023-12-28T14:41:21;13.90;69.80
38325;DHT22;24126;52.672;13.622;2023-12-28T14:43:48;13.90;69.90
38325;DHT22;24126;52.672;13.622;2023-12-28T14:46:16;13.90;69.80
38325;DHT22;24126;52.672;13.622;2023-12-28T14:48:43;13.90;70.00
38325;DHT22;24126;52.672;13.622;2023-12-28T14:51:11;13.90;70.00
38325;DHT22;24126;52.672;13.622;2023-12-28T14:53:38;13.80;69.90
38325;DHT22;24126;52.672;13.622;2023-12-28T14:56:05;13.90;70.00
38325;DHT22;24126;52.672;13.622;2023-12-28T14:58:33;13.90;70.10
38325;DHT22;24126;52.672;13.622;2023-12-28T15:01:00;13.80;70.10
38325;DHT22;24126;52.672;13.622;2023-12-28T15:03:27;13.80;70.10
38325;DHT22;24126;52.672;13.622;2023-12-28T15:05:54;13.80;70.10
38325;DHT22;24126;52.672;13.622;2023-12-28T15:08:23;13.80;70.00
38325;DHT22;24126;52.672;13.622;2023-12-28T15:10:50;13.80;70.10
38325;DHT22;24126;52.672;13.622;2023-12-28T15:13:17;13.80;70.20
38325;DHT22;24126;52.672;13.622;2023-12-28T15:15:44;13.80;70.10
38325;DHT22;24126;52.672;13.622;2023-12-28T15:18:14;13.70;70.10
38325;DHT22;24126;52.672;13.622;2023-12-28T15:20:44;13.70;70.10
38325;DHT22;24126;52.672;13.622;2023-12-28T15:23:12;13.70;70.10
38325;DHT22;24126;52.672;13.622;2023-12-28T15:25:47;13.70;70.10